Aviation Digital Data Service (ADDS)

Output produced by METARs form (0020 UTC 21 January 2018)
found at http://aviationweather.gov/adds/metars/
 
KRUT 202326Z 2100/2124 29005KT P6SM BKN080 
     FM210300 28005KT P6SM BKN060 
     FM211100 29004KT P6SM BKN030 
     FM211700 30004KT P6SM OVC025 
     FM212100 00000KT P6SM OVC035